createdAt,value
2018-05-08T00:00:10.229Z,3.218688
2018-05-08T00:00:22.681Z,3.218688
2018-05-08T00:00:35.147Z,3.218688
2018-05-08T00:00:47.574Z,3.218688
2018-05-08T00:00:59.997Z,3.218688
2018-05-08T00:01:12.412Z,1.609344
2018-05-08T00:01:24.835Z,1.609344
2018-05-08T00:01:37.250Z,3.218688
2018-05-08T00:01:49.680Z,8.04672
2018-05-08T00:02:02.096Z,8.04672
2018-05-08T00:02:14.515Z,3.218688
2018-05-08T00:02:26.933Z,3.218688
2018-05-08T00:02:39.442Z,8.04672
2018-05-08T00:02:51.853Z,8.04672
2018-05-08T00:03:04.264Z,3.218688
2018-05-08T00:03:16.685Z,3.218688
2018-05-08T00:03:29.109Z,3.218688
2018-05-08T00:03:41.572Z,3.218688
2018-05-08T00:03:53.999Z,3.218688
2018-05-08T00:04:06.414Z,0
2018-05-08T00:04:18.869Z,1.609344
2018-05-08T00:04:31.289Z,3.218688
2018-05-08T00:04:43.693Z,6.437376
2018-05-08T00:04:56.116Z,6.437376
2018-05-08T00:05:08.801Z,1.609344
2018-05-08T00:05:21.231Z,1.609344
2018-05-08T00:05:33.680Z,1.609344
2018-05-08T00:05:46.158Z,1.609344
2018-05-08T00:05:58.591Z,1.609344
2018-05-08T00:06:11.014Z,1.609344
2018-05-08T00:06:23.438Z,1.609344
2018-05-08T00:06:35.855Z,1.609344
2018-05-08T00:06:48.262Z,1.609344
2018-05-08T00:07:00.695Z,1.609344
2018-05-08T00:07:13.106Z,0
2018-05-08T00:07:25.529Z,1.609344
2018-05-08T00:07:37.958Z,1.609344
2018-05-08T00:07:50.379Z,1.609344
2018-05-08T00:08:02.784Z,1.609344
2018-05-08T00:08:15.198Z,3.218688
2018-05-08T00:08:27.599Z,3.218688
2018-05-08T00:08:40.017Z,3.218688
2018-05-08T00:08:52.828Z,3.218688
2018-05-08T00:09:05.786Z,4.828032
2018-05-08T00:09:18.217Z,4.828032
2018-05-08T00:09:30.631Z,8.04672
2018-05-08T00:09:43.037Z,8.04672
2018-05-08T00:09:55.450Z,8.04672
2018-05-08T00:10:08.106Z,1.609344
2018-05-08T00:10:20.527Z,1.609344
2018-05-08T00:10:32.937Z,1.609344
2018-05-08T00:10:45.358Z,1.609344
2018-05-08T00:10:57.772Z,1.609344
2018-05-08T00:11:10.248Z,1.609344
2018-05-08T00:11:22.658Z,1.609344
2018-05-08T00:11:35.330Z,6.437376
2018-05-08T00:11:47.769Z,6.437376
2018-05-08T00:12:00.182Z,6.437376
2018-05-08T00:12:12.619Z,3.218688
2018-05-08T00:12:25.053Z,3.218688
2018-05-08T00:12:37.495Z,3.218688
2018-05-08T00:12:49.903Z,3.218688
2018-05-08T00:13:02.306Z,3.218688
2018-05-08T00:13:14.885Z,3.218688
2018-05-08T00:13:27.309Z,3.218688
2018-05-08T00:13:39.726Z,3.218688
2018-05-08T00:13:52.138Z,3.218688
2018-05-08T00:14:04.564Z,1.609344
2018-05-08T00:14:16.970Z,1.609344
2018-05-08T00:14:29.379Z,3.218688
2018-05-08T00:14:41.795Z,3.218688
2018-05-08T00:14:54.208Z,4.828032
2018-05-08T00:15:06.627Z,4.828032
2018-05-08T00:15:19.066Z,6.437376
2018-05-08T00:15:31.491Z,6.437376
2018-05-08T00:15:43.891Z,6.437376
2018-05-08T00:15:56.310Z,6.437376
2018-05-08T00:16:08.718Z,1.609344
2018-05-08T00:16:21.131Z,3.218688
2018-05-08T00:16:33.589Z,3.218688
2018-05-08T00:16:46.017Z,3.218688
2018-05-08T00:16:58.430Z,3.218688
2018-05-08T00:17:10.828Z,1.609344
2018-05-08T00:17:23.245Z,1.609344
2018-05-08T00:17:35.679Z,1.609344
2018-05-08T00:17:48.098Z,1.609344
2018-05-08T00:18:00.593Z,1.609344
2018-05-08T00:18:13.051Z,1.609344
2018-05-08T00:18:25.560Z,3.218688
2018-05-08T00:18:37.977Z,3.218688
2018-05-08T00:18:50.371Z,3.218688
2018-05-08T00:19:02.800Z,3.218688
2018-05-08T00:19:15.217Z,1.609344
2018-05-08T00:19:27.680Z,1.609344
2018-05-08T00:19:40.110Z,1.609344
2018-05-08T00:19:52.518Z,1.609344
2018-05-08T00:20:04.931Z,0
2018-05-08T00:20:17.363Z,0
2018-05-08T00:20:29.768Z,0
2018-05-08T00:20:42.242Z,0
2018-05-08T00:20:54.668Z,0
2018-05-08T00:21:07.077Z,0
2018-05-08T00:21:19.490Z,0
2018-05-08T00:21:31.902Z,0
2018-05-08T00:21:44.325Z,1.609344
2018-05-08T00:21:56.859Z,6.437376
2018-05-08T00:22:09.261Z,3.218688
2018-05-08T00:22:21.653Z,3.218688
2018-05-08T00:22:34.066Z,3.218688
2018-05-08T00:22:46.472Z,3.218688
2018-05-08T00:22:58.888Z,3.218688
2018-05-08T00:23:11.355Z,3.218688
2018-05-08T00:23:23.759Z,3.218688
2018-05-08T00:23:36.164Z,4.828032
2018-05-08T00:23:48.590Z,4.828032
2018-05-08T00:24:01.243Z,6.437376
2018-05-08T00:24:13.662Z,6.437376
2018-05-08T00:24:26.072Z,6.437376
2018-05-08T00:24:38.832Z,6.437376
2018-05-08T00:24:51.244Z,6.437376
2018-05-08T00:25:03.654Z,3.218688
2018-05-08T00:25:16.067Z,3.218688
2018-05-08T00:25:28.502Z,3.218688
2018-05-08T00:25:40.928Z,4.828032
2018-05-08T00:25:53.396Z,4.828032
2018-05-08T00:26:05.798Z,1.609344
2018-05-08T00:26:18.202Z,3.218688
2018-05-08T00:26:30.625Z,6.437376
2018-05-08T00:26:43.061Z,6.437376
2018-05-08T00:26:55.482Z,6.437376
2018-05-08T00:27:07.878Z,1.609344
2018-05-08T00:27:20.294Z,1.609344
2018-05-08T00:27:32.704Z,1.609344
2018-05-08T00:27:45.165Z,3.218688
2018-05-08T00:27:57.577Z,3.218688
2018-05-08T00:28:09.978Z,3.218688
2018-05-08T00:28:22.394Z,3.218688
2018-05-08T00:28:34.813Z,3.218688
2018-05-08T00:28:47.241Z,3.218688
2018-05-08T00:28:59.672Z,3.218688
2018-05-08T00:29:12.153Z,4.828032
2018-05-08T00:29:24.666Z,4.828032
2018-05-08T00:29:37.078Z,4.828032
2018-05-08T00:29:49.508Z,4.828032
2018-05-08T00:30:01.923Z,4.828032
2018-05-08T00:30:14.343Z,1.609344
2018-05-08T00:30:26.824Z,1.609344
2018-05-08T00:30:39.237Z,3.218688
2018-05-08T00:30:51.646Z,3.218688
2018-05-08T00:31:04.060Z,1.609344
2018-05-08T00:31:16.466Z,3.218688
2018-05-08T00:31:28.875Z,3.218688
2018-05-08T00:31:41.283Z,3.218688
2018-05-08T00:31:53.776Z,3.218688
2018-05-08T00:32:06.195Z,3.218688
2018-05-08T00:32:18.612Z,3.218688
2018-05-08T00:32:31.017Z,6.437376
2018-05-08T00:32:43.433Z,6.437376
2018-05-08T00:32:55.856Z,6.437376
2018-05-08T00:33:08.271Z,0
2018-05-08T00:33:20.673Z,1.609344
2018-05-08T00:33:33.103Z,1.609344
2018-05-08T00:33:45.508Z,1.609344
2018-05-08T00:33:57.976Z,1.609344
2018-05-08T00:34:10.500Z,1.609344
2018-05-08T00:34:22.913Z,1.609344
2018-05-08T00:34:35.329Z,1.609344
2018-05-08T00:34:47.731Z,3.218688
2018-05-08T00:35:00.144Z,3.218688
2018-05-08T00:35:12.570Z,1.609344
2018-05-08T00:35:24.977Z,3.218688
2018-05-08T00:35:37.385Z,3.218688
2018-05-08T00:35:49.810Z,3.218688
2018-05-08T00:36:02.294Z,4.828032
2018-05-08T00:36:14.706Z,3.218688
2018-05-08T00:36:27.125Z,3.218688
2018-05-08T00:36:39.539Z,3.218688
2018-05-08T00:36:51.975Z,3.218688
2018-05-08T00:37:04.383Z,3.218688
2018-05-08T00:37:16.875Z,3.218688
2018-05-08T00:37:29.296Z,3.218688
2018-05-08T00:37:41.692Z,3.218688
2018-05-08T00:37:54.094Z,3.218688
2018-05-08T00:38:06.497Z,3.218688
2018-05-08T00:38:18.944Z,3.218688
2018-05-08T00:38:31.357Z,3.218688
2018-05-08T00:38:43.840Z,3.218688
2018-05-08T00:38:56.259Z,3.218688
2018-05-08T00:39:08.712Z,1.609344
2018-05-08T00:39:21.195Z,3.218688
2018-05-08T00:39:33.601Z,3.218688
2018-05-08T00:39:46.167Z,3.218688
2018-05-08T00:39:58.593Z,3.218688
2018-05-08T00:40:11.016Z,4.828032
2018-05-08T00:40:23.429Z,4.828032
2018-05-08T00:40:35.833Z,4.828032
2018-05-08T00:40:48.240Z,4.828032
2018-05-08T00:41:00.647Z,4.828032
2018-05-08T00:41:13.045Z,1.609344
2018-05-08T00:41:25.447Z,1.609344
2018-05-08T00:41:37.843Z,3.218688
2018-05-08T00:41:50.266Z,3.218688
2018-05-08T00:42:02.676Z,3.218688
2018-05-08T00:42:15.073Z,1.609344
2018-05-08T00:42:27.497Z,1.609344
2018-05-08T00:42:39.919Z,3.218688
2018-05-08T00:42:52.336Z,3.218688
2018-05-08T00:43:04.732Z,1.609344
2018-05-08T00:43:17.141Z,1.609344
2018-05-08T00:43:29.555Z,1.609344
2018-05-08T00:43:41.966Z,1.609344
2018-05-08T00:43:54.366Z,1.609344
2018-05-08T00:44:06.789Z,0
2018-05-08T00:44:19.186Z,0
2018-05-08T00:44:31.600Z,1.609344
2018-05-08T00:44:44.036Z,1.609344
2018-05-08T00:44:56.834Z,1.609344
2018-05-08T00:45:09.246Z,1.609344
2018-05-08T00:45:21.901Z,1.609344
2018-05-08T00:45:34.307Z,1.609344
2018-05-08T00:45:46.721Z,1.609344
2018-05-08T00:45:59.206Z,1.609344
2018-05-08T00:46:11.597Z,1.609344
2018-05-08T00:46:23.994Z,1.609344
2018-05-08T00:46:36.399Z,1.609344
2018-05-08T00:46:48.831Z,1.609344
2018-05-08T00:47:01.232Z,1.609344
2018-05-08T00:47:13.649Z,0
2018-05-08T00:47:26.057Z,0
2018-05-08T00:47:38.539Z,0
2018-05-08T00:47:50.940Z,1.609344
2018-05-08T00:48:03.401Z,4.828032
2018-05-08T00:48:15.938Z,4.828032
2018-05-08T00:48:28.355Z,4.828032
2018-05-08T00:48:40.776Z,6.437376
2018-05-08T00:48:53.331Z,6.437376
2018-05-08T00:49:05.751Z,1.609344
2018-05-08T00:49:18.174Z,1.609344
2018-05-08T00:49:30.586Z,3.218688
2018-05-08T00:49:43.133Z,8.04672
2018-05-08T00:49:55.539Z,8.04672
2018-05-08T00:50:07.943Z,3.218688
2018-05-08T00:50:20.436Z,3.218688
2018-05-08T00:50:32.921Z,3.218688
2018-05-08T00:50:45.333Z,3.218688
2018-05-08T00:50:57.733Z,3.218688
2018-05-08T00:51:10.138Z,0
2018-05-08T00:51:22.904Z,0
2018-05-08T00:51:35.310Z,0
2018-05-08T00:51:47.740Z,0
2018-05-08T00:52:00.142Z,3.218688
2018-05-08T00:52:12.569Z,4.828032
2018-05-08T00:52:24.969Z,8.04672
2018-05-08T00:52:37.377Z,8.04672
2018-05-08T00:52:49.831Z,8.04672
2018-05-08T00:53:02.271Z,8.04672
2018-05-08T00:53:14.690Z,1.609344
2018-05-08T00:53:27.107Z,1.609344
2018-05-08T00:53:39.533Z,1.609344
2018-05-08T00:53:51.938Z,6.437376
2018-05-08T00:54:04.353Z,6.437376
2018-05-08T00:54:16.762Z,6.437376
2018-05-08T00:54:29.213Z,6.437376
2018-05-08T00:54:41.617Z,6.437376
2018-05-08T00:54:54.028Z,6.437376
2018-05-08T00:55:06.481Z,1.609344
2018-05-08T00:55:18.898Z,4.828032
2018-05-08T00:55:31.300Z,8.04672
2018-05-08T00:55:43.711Z,8.04672
2018-05-08T00:55:56.117Z,8.04672
2018-05-08T00:56:08.539Z,3.218688
2018-05-08T00:56:20.943Z,3.218688
2018-05-08T00:56:33.387Z,3.218688
2018-05-08T00:56:45.797Z,3.218688
2018-05-08T00:56:58.265Z,8.04672
2018-05-08T00:57:10.687Z,6.437376
2018-05-08T00:57:23.101Z,6.437376
2018-05-08T00:57:35.504Z,8.04672
2018-05-08T00:57:47.903Z,8.04672
2018-05-08T00:58:00.322Z,8.04672
2018-05-08T00:58:12.784Z,8.04672
2018-05-08T00:58:25.224Z,8.04672
2018-05-08T00:58:37.629Z,8.04672
2018-05-08T00:58:50.042Z,8.04672
2018-05-08T00:59:02.440Z,8.04672
2018-05-08T00:59:14.859Z,3.218688
2018-05-08T00:59:27.266Z,3.218688
2018-05-08T00:59:39.681Z,3.218688
2018-05-08T00:59:52.083Z,3.218688
2018-05-08T01:00:04.495Z,1.609344
2018-05-08T01:00:16.936Z,3.218688
2018-05-08T01:00:29.375Z,3.218688
2018-05-08T01:00:41.800Z,6.437376
2018-05-08T01:00:54.225Z,6.437376
2018-05-08T01:01:06.636Z,3.218688
2018-05-08T01:01:19.060Z,6.437376
2018-05-08T01:01:31.552Z,6.437376
2018-05-08T01:01:43.969Z,6.437376
2018-05-08T01:01:56.380Z,6.437376
2018-05-08T01:02:08.787Z,3.218688
2018-05-08T01:02:21.209Z,8.04672
2018-05-08T01:02:33.622Z,8.04672
2018-05-08T01:02:46.239Z,8.04672
2018-05-08T01:02:58.706Z,8.04672
2018-05-08T01:03:11.118Z,6.437376
2018-05-08T01:03:23.522Z,6.437376
2018-05-08T01:03:35.939Z,6.437376
2018-05-08T01:03:48.363Z,6.437376
2018-05-08T01:04:00.795Z,6.437376
2018-05-08T01:04:13.196Z,3.218688
2018-05-08T01:04:25.606Z,3.218688
2018-05-08T01:04:38.057Z,8.04672
2018-05-08T01:04:50.611Z,8.04672
2018-05-08T01:05:04.115Z,3.218688
2018-05-08T01:05:16.660Z,3.218688
2018-05-08T01:05:29.080Z,3.218688
2018-05-08T01:05:41.490Z,6.437376
2018-05-08T01:05:53.897Z,8.04672
2018-05-08T01:06:06.382Z,3.218688
2018-05-08T01:06:18.781Z,3.218688
2018-05-08T01:06:31.177Z,3.218688
2018-05-08T01:06:43.603Z,3.218688
2018-05-08T01:06:56.028Z,4.828032
2018-05-08T01:07:08.433Z,6.437376
2018-05-08T01:07:20.859Z,6.437376
2018-05-08T01:07:33.458Z,6.437376
2018-05-08T01:07:45.869Z,6.437376
2018-05-08T01:07:58.274Z,6.437376
2018-05-08T01:08:10.691Z,3.218688
2018-05-08T01:08:23.104Z,3.218688
2018-05-08T01:08:35.575Z,3.218688
2018-05-08T01:08:47.988Z,3.218688
2018-05-08T01:09:00.398Z,3.218688
2018-05-08T01:09:12.799Z,4.828032
2018-05-08T01:09:25.247Z,6.437376
2018-05-08T01:09:37.650Z,6.437376
2018-05-08T01:09:50.082Z,6.437376
2018-05-08T01:10:02.477Z,6.437376
2018-05-08T01:10:14.898Z,0
2018-05-08T01:10:27.309Z,3.218688
2018-05-08T01:10:39.712Z,3.218688
2018-05-08T01:10:52.145Z,3.218688
2018-05-08T01:11:04.589Z,3.218688
2018-05-08T01:11:16.976Z,4.828032
2018-05-08T01:11:29.526Z,4.828032
2018-05-08T01:11:42.515Z,6.437376
2018-05-08T01:11:55.027Z,6.437376
2018-05-08T01:12:07.443Z,4.828032
2018-05-08T01:12:19.854Z,4.828032
2018-05-08T01:12:32.307Z,4.828032
2018-05-08T01:12:44.728Z,4.828032
2018-05-08T01:12:57.149Z,4.828032
2018-05-08T01:13:09.563Z,3.218688
2018-05-08T01:13:21.976Z,8.04672
2018-05-08T01:13:34.393Z,9.656064
2018-05-08T01:13:46.809Z,9.656064
2018-05-08T01:13:59.226Z,9.656064
2018-05-08T01:14:11.647Z,3.218688
2018-05-08T01:14:24.084Z,3.218688
2018-05-08T01:14:36.594Z,3.218688
2018-05-08T01:14:49.006Z,3.218688
2018-05-08T01:15:01.521Z,3.218688
2018-05-08T01:15:13.959Z,9.656064
2018-05-08T01:15:26.373Z,9.656064
2018-05-08T01:15:38.785Z,9.656064
2018-05-08T01:15:51.195Z,9.656064
2018-05-08T01:16:03.631Z,1.609344
2018-05-08T01:16:16.059Z,1.609344
2018-05-08T01:16:28.489Z,3.218688
2018-05-08T01:16:40.911Z,6.437376
2018-05-08T01:16:53.342Z,6.437376
2018-05-08T01:17:06.506Z,0
2018-05-08T01:17:19.355Z,8.04672
2018-05-08T01:17:31.905Z,8.04672
2018-05-08T01:17:44.314Z,8.04672
2018-05-08T01:17:56.709Z,8.04672
2018-05-08T01:18:09.127Z,9.656064
2018-05-08T01:18:21.712Z,9.656064
2018-05-08T01:18:34.120Z,9.656064
2018-05-08T01:18:46.523Z,9.656064
2018-05-08T01:18:58.998Z,9.656064
2018-05-08T01:19:11.416Z,8.04672
2018-05-08T01:19:23.836Z,8.04672
2018-05-08T01:19:36.259Z,8.04672
2018-05-08T01:19:48.674Z,8.04672
2018-05-08T01:20:01.093Z,9.656064
2018-05-08T01:20:13.611Z,8.04672
2018-05-08T01:20:26.036Z,8.04672
2018-05-08T01:20:38.447Z,8.04672
2018-05-08T01:20:50.857Z,8.04672
2018-05-08T01:21:03.268Z,1.609344
2018-05-08T01:21:15.676Z,3.218688
2018-05-08T01:21:28.088Z,3.218688
2018-05-08T01:21:40.564Z,3.218688
2018-05-08T01:21:52.988Z,6.437376
2018-05-08T01:22:05.402Z,4.828032
2018-05-08T01:22:17.831Z,6.437376
2018-05-08T01:22:30.257Z,11.265408
2018-05-08T01:22:42.684Z,11.265408
2018-05-08T01:22:55.119Z,11.265408
2018-05-08T01:23:07.537Z,4.828032
2018-05-08T01:23:19.981Z,4.828032
2018-05-08T01:23:32.380Z,4.828032
2018-05-08T01:23:44.782Z,4.828032
2018-05-08T01:23:57.257Z,4.828032
2018-05-08T01:24:09.658Z,9.656064
2018-05-08T01:24:22.060Z,9.656064
2018-05-08T01:24:34.494Z,9.656064
2018-05-08T01:24:47.060Z,9.656064
2018-05-08T01:24:59.484Z,9.656064
2018-05-08T01:25:11.995Z,6.437376
2018-05-08T01:25:24.407Z,6.437376
2018-05-08T01:25:36.833Z,6.437376
2018-05-08T01:25:49.238Z,6.437376
2018-05-08T01:26:01.650Z,6.437376
2018-05-08T01:26:14.053Z,1.609344
2018-05-08T01:26:26.457Z,1.609344
2018-05-08T01:26:38.865Z,1.609344
2018-05-08T01:26:51.276Z,3.218688
2018-05-08T01:27:03.688Z,1.609344
2018-05-08T01:27:16.103Z,4.828032
2018-05-08T01:27:28.590Z,8.04672
2018-05-08T01:27:41.149Z,8.04672
2018-05-08T01:27:53.577Z,8.04672
2018-05-08T01:28:05.997Z,3.218688
2018-05-08T01:28:18.410Z,4.828032
2018-05-08T01:28:30.836Z,6.437376
2018-05-08T01:28:43.237Z,6.437376
2018-05-08T01:28:55.645Z,6.437376
2018-05-08T01:29:08.058Z,3.218688
2018-05-08T01:29:20.568Z,4.828032
2018-05-08T01:29:32.978Z,4.828032
2018-05-08T01:29:45.441Z,6.437376
2018-05-08T01:29:57.860Z,6.437376
2018-05-08T01:30:10.259Z,8.04672
2018-05-08T01:30:22.670Z,9.656064
2018-05-08T01:30:35.080Z,9.656064
2018-05-08T01:30:47.497Z,9.656064
2018-05-08T01:30:59.897Z,9.656064
2018-05-08T01:31:12.364Z,1.609344
2018-05-08T01:31:24.786Z,1.609344
2018-05-08T01:31:37.505Z,8.04672
2018-05-08T01:31:50.385Z,9.656064
2018-05-08T01:32:02.784Z,9.656064
2018-05-08T01:32:15.194Z,9.656064
2018-05-08T01:32:27.604Z,9.656064
2018-05-08T01:32:40.081Z,9.656064
2018-05-08T01:32:52.499Z,9.656064
2018-05-08T01:33:04.905Z,8.04672
2018-05-08T01:33:17.315Z,8.04672
2018-05-08T01:33:29.720Z,8.04672
2018-05-08T01:33:42.123Z,8.04672
2018-05-08T01:33:54.530Z,8.04672
2018-05-08T01:34:07.041Z,1.609344
2018-05-08T01:34:19.445Z,6.437376
2018-05-08T01:34:31.866Z,6.437376
2018-05-08T01:34:44.301Z,6.437376
2018-05-08T01:34:56.712Z,6.437376
2018-05-08T01:35:09.130Z,1.609344
2018-05-08T01:35:21.540Z,3.218688
2018-05-08T01:35:33.946Z,3.218688
2018-05-08T01:35:46.347Z,3.218688
2018-05-08T01:35:58.757Z,3.218688
2018-05-08T01:36:11.165Z,3.218688
2018-05-08T01:36:23.576Z,3.218688
2018-05-08T01:36:36.022Z,3.218688
2018-05-08T01:36:48.420Z,8.04672
2018-05-08T01:37:00.833Z,8.04672
2018-05-08T01:37:13.254Z,4.828032
2018-05-08T01:37:25.675Z,4.828032
2018-05-08T01:37:38.070Z,4.828032
2018-05-08T01:37:50.491Z,4.828032
2018-05-08T01:38:03.107Z,4.828032
2018-05-08T01:38:15.529Z,9.656064
2018-05-08T01:38:27.941Z,9.656064
2018-05-08T01:38:40.339Z,9.656064
2018-05-08T01:38:52.748Z,9.656064
2018-05-08T01:39:05.156Z,6.437376
2018-05-08T01:39:17.642Z,8.04672
2018-05-08T01:39:30.122Z,8.04672
2018-05-08T01:39:42.754Z,8.04672
2018-05-08T01:39:55.173Z,8.04672
2018-05-08T01:40:07.595Z,4.828032
2018-05-08T01:40:20.002Z,4.828032
2018-05-08T01:40:32.406Z,4.828032
2018-05-08T01:40:44.808Z,4.828032
2018-05-08T01:40:57.213Z,4.828032
2018-05-08T01:41:09.627Z,4.828032
2018-05-08T01:41:22.041Z,4.828032
2018-05-08T01:41:34.435Z,4.828032
2018-05-08T01:41:46.847Z,4.828032
2018-05-08T01:41:59.252Z,4.828032
2018-05-08T01:42:11.678Z,1.609344
2018-05-08T01:42:24.115Z,1.609344
2018-05-08T01:42:36.526Z,1.609344
2018-05-08T01:42:48.930Z,3.218688
2018-05-08T01:43:01.334Z,8.04672
2018-05-08T01:43:14.095Z,6.437376
2018-05-08T01:43:27.125Z,6.437376
2018-05-08T01:43:39.529Z,6.437376
2018-05-08T01:43:51.947Z,6.437376
2018-05-08T01:44:04.347Z,6.437376
2018-05-08T01:44:16.772Z,6.437376
2018-05-08T01:44:29.210Z,6.437376
2018-05-08T01:44:41.622Z,6.437376
2018-05-08T01:44:54.420Z,6.437376
2018-05-08T01:45:06.910Z,1.609344
2018-05-08T01:45:19.328Z,3.218688
2018-05-08T01:45:31.864Z,3.218688
2018-05-08T01:45:44.267Z,3.218688
2018-05-08T01:45:56.666Z,3.218688
2018-05-08T01:46:09.064Z,4.828032
2018-05-08T01:46:21.469Z,8.04672
2018-05-08T01:46:34.022Z,8.04672
2018-05-08T01:46:46.445Z,8.04672
2018-05-08T01:46:58.883Z,9.656064
2018-05-08T01:47:11.302Z,8.04672
2018-05-08T01:47:23.813Z,8.04672
2018-05-08T01:47:36.241Z,8.04672
2018-05-08T01:47:48.670Z,8.04672
2018-05-08T01:48:01.077Z,8.04672
2018-05-08T01:48:13.649Z,1.609344
2018-05-08T01:48:26.055Z,1.609344
2018-05-08T01:48:38.459Z,3.218688
2018-05-08T01:48:51.032Z,3.218688
2018-05-08T01:49:03.454Z,1.609344
2018-05-08T01:49:15.871Z,1.609344
2018-05-08T01:49:28.282Z,1.609344
2018-05-08T01:49:40.852Z,1.609344
2018-05-08T01:49:53.250Z,1.609344
2018-05-08T01:50:05.681Z,8.04672
2018-05-08T01:50:18.107Z,8.04672
2018-05-08T01:50:30.512Z,8.04672
2018-05-08T01:50:42.922Z,8.04672
2018-05-08T01:50:55.322Z,8.04672
2018-05-08T01:51:07.737Z,3.218688
2018-05-08T01:51:20.147Z,8.04672
2018-05-08T01:51:32.568Z,11.265408
2018-05-08T01:51:44.975Z,11.265408
2018-05-08T01:51:57.402Z,11.265408
2018-05-08T01:52:09.826Z,8.04672
2018-05-08T01:52:22.222Z,8.04672
2018-05-08T01:52:34.632Z,8.04672
2018-05-08T01:52:47.051Z,8.04672
2018-05-08T01:52:59.451Z,8.04672
2018-05-08T01:53:11.876Z,6.437376
2018-05-08T01:53:24.357Z,6.437376
2018-05-08T01:53:36.780Z,6.437376
2018-05-08T01:53:49.175Z,6.437376
2018-05-08T01:54:01.581Z,6.437376
2018-05-08T01:54:13.987Z,3.218688
2018-05-08T01:54:26.403Z,3.218688
2018-05-08T01:54:38.823Z,6.437376
2018-05-08T01:54:51.248Z,8.04672
2018-05-08T01:55:03.735Z,6.437376
2018-05-08T01:55:16.156Z,9.656064
2018-05-08T01:55:28.560Z,9.656064
2018-05-08T01:55:40.967Z,11.265408
2018-05-08T01:55:53.387Z,11.265408
2018-05-08T01:56:05.798Z,8.04672
2018-05-08T01:56:18.214Z,8.04672
2018-05-08T01:56:30.635Z,11.265408
2018-05-08T01:56:43.052Z,11.265408
2018-05-08T01:56:55.474Z,11.265408
2018-05-08T01:57:07.891Z,1.609344
2018-05-08T01:57:20.299Z,1.609344
2018-05-08T01:57:32.790Z,1.609344
2018-05-08T01:57:45.210Z,3.218688
2018-05-08T01:57:57.614Z,4.828032
2018-05-08T01:58:10.017Z,6.437376
2018-05-08T01:58:22.407Z,6.437376
2018-05-08T01:58:34.812Z,6.437376
2018-05-08T01:58:47.298Z,6.437376
2018-05-08T01:58:59.714Z,6.437376
2018-05-08T01:59:12.129Z,3.218688
2018-05-08T01:59:24.530Z,6.437376
2018-05-08T01:59:36.956Z,9.656064
2018-05-08T01:59:49.357Z,9.656064
2018-05-08T02:00:01.818Z,9.656064
2018-05-08T02:00:14.268Z,3.218688
2018-05-08T02:00:26.916Z,3.218688
2018-05-08T02:00:39.384Z,3.218688
2018-05-08T02:00:51.809Z,3.218688
2018-05-08T02:01:04.234Z,1.609344
2018-05-08T02:01:16.679Z,1.609344
2018-05-08T02:01:29.109Z,3.218688
2018-05-08T02:01:41.547Z,3.218688
2018-05-08T02:01:53.993Z,3.218688
2018-05-08T02:02:06.400Z,1.609344
2018-05-08T02:02:18.810Z,1.609344
2018-05-08T02:02:31.221Z,1.609344
2018-05-08T02:02:43.638Z,3.218688
2018-05-08T02:02:56.071Z,3.218688
2018-05-08T02:03:08.483Z,3.218688
2018-05-08T02:03:20.907Z,9.656064
2018-05-08T02:03:33.334Z,9.656064
2018-05-08T02:03:45.752Z,9.656064
2018-05-08T02:03:58.167Z,9.656064
2018-05-08T02:04:10.601Z,8.04672
2018-05-08T02:04:23.025Z,9.656064
2018-05-08T02:04:35.430Z,9.656064
2018-05-08T02:04:47.842Z,9.656064
2018-05-08T02:05:00.321Z,9.656064
2018-05-08T02:05:12.735Z,3.218688
2018-05-08T02:05:25.208Z,3.218688
2018-05-08T02:05:37.637Z,4.828032
2018-05-08T02:05:50.052Z,8.04672
2018-05-08T02:06:02.487Z,8.04672
2018-05-08T02:06:14.918Z,4.828032
2018-05-08T02:06:27.325Z,4.828032
2018-05-08T02:06:39.733Z,4.828032
2018-05-08T02:06:52.137Z,4.828032
2018-05-08T02:07:04.544Z,1.609344
2018-05-08T02:07:16.963Z,3.218688
2018-05-08T02:07:29.426Z,3.218688
2018-05-08T02:07:41.844Z,6.437376
2018-05-08T02:07:54.239Z,8.04672
2018-05-08T02:08:06.667Z,8.04672
2018-05-08T02:08:19.079Z,8.04672
2018-05-08T02:08:31.498Z,8.04672
2018-05-08T02:08:43.904Z,8.04672
2018-05-08T02:08:56.326Z,8.04672
2018-05-08T02:09:08.743Z,1.609344
2018-05-08T02:09:21.145Z,1.609344
2018-05-08T02:09:33.550Z,3.218688
2018-05-08T02:09:45.955Z,3.218688
2018-05-08T02:09:58.378Z,3.218688
2018-05-08T02:10:10.791Z,4.828032
2018-05-08T02:10:23.332Z,4.828032
2018-05-08T02:10:35.750Z,4.828032
2018-05-08T02:10:48.173Z,4.828032
2018-05-08T02:11:00.583Z,4.828032
2018-05-08T02:11:12.997Z,6.437376
2018-05-08T02:11:25.412Z,6.437376
2018-05-08T02:11:38.002Z,6.437376
2018-05-08T02:11:50.437Z,6.437376
2018-05-08T02:12:02.888Z,6.437376
2018-05-08T02:12:15.300Z,1.609344
2018-05-08T02:12:27.731Z,1.609344
2018-05-08T02:12:40.159Z,1.609344
2018-05-08T02:12:52.599Z,3.218688
2018-05-08T02:13:05.007Z,1.609344
2018-05-08T02:13:17.413Z,3.218688
2018-05-08T02:13:29.814Z,6.437376
2018-05-08T02:13:42.223Z,6.437376
2018-05-08T02:13:54.633Z,6.437376
2018-05-08T02:14:07.045Z,3.218688
2018-05-08T02:14:19.461Z,3.218688
2018-05-08T02:14:31.865Z,3.218688
2018-05-08T02:14:44.284Z,3.218688
2018-05-08T02:14:56.684Z,9.656064
2018-05-08T02:15:09.105Z,3.218688
2018-05-08T02:15:21.526Z,6.437376
2018-05-08T02:15:33.966Z,6.437376
2018-05-08T02:15:46.375Z,8.04672
2018-05-08T02:15:58.858Z,8.04672
2018-05-08T02:16:11.282Z,3.218688
2018-05-08T02:16:23.725Z,3.218688
2018-05-08T02:16:36.319Z,3.218688
2018-05-08T02:16:48.734Z,3.218688
2018-05-08T02:17:01.157Z,3.218688
2018-05-08T02:17:13.564Z,4.828032
2018-05-08T02:17:25.960Z,4.828032
2018-05-08T02:17:38.369Z,4.828032
2018-05-08T02:17:50.871Z,4.828032
2018-05-08T02:18:03.280Z,1.609344
2018-05-08T02:18:15.781Z,1.609344
2018-05-08T02:18:28.271Z,1.609344
2018-05-08T02:18:40.678Z,3.218688
2018-05-08T02:18:53.094Z,3.218688
2018-05-08T02:19:05.514Z,1.609344
2018-05-08T02:19:17.928Z,1.609344
2018-05-08T02:19:30.332Z,1.609344
2018-05-08T02:19:42.747Z,1.609344
2018-05-08T02:19:55.175Z,8.04672
2018-05-08T02:20:07.666Z,9.656064
2018-05-08T02:20:20.491Z,9.656064
2018-05-08T02:20:33.606Z,9.656064
2018-05-08T02:20:46.106Z,9.656064
2018-05-08T02:20:58.524Z,9.656064
2018-05-08T02:21:10.935Z,1.609344
2018-05-08T02:21:23.357Z,3.218688
2018-05-08T02:21:35.813Z,3.218688
2018-05-08T02:21:48.242Z,3.218688
2018-05-08T02:22:00.693Z,3.218688
2018-05-08T02:22:13.118Z,1.609344
2018-05-08T02:22:25.537Z,3.218688
2018-05-08T02:22:37.942Z,4.828032
2018-05-08T02:22:50.357Z,4.828032
2018-05-08T02:23:02.775Z,4.828032
2018-05-08T02:23:15.193Z,1.609344
2018-05-08T02:23:27.595Z,1.609344
2018-05-08T02:23:40.080Z,1.609344
2018-05-08T02:23:52.627Z,1.609344
2018-05-08T02:24:05.044Z,0
2018-05-08T02:24:17.450Z,0
2018-05-08T02:24:29.890Z,3.218688
2018-05-08T02:24:42.551Z,3.218688
2018-05-08T02:24:54.964Z,3.218688
2018-05-08T02:25:07.382Z,3.218688
2018-05-08T02:25:19.792Z,6.437376
2018-05-08T02:25:32.212Z,8.04672
2018-05-08T02:25:44.621Z,8.04672
2018-05-08T02:25:57.589Z,9.656064
2018-05-08T02:26:10.389Z,8.04672
2018-05-08T02:26:22.810Z,8.04672
2018-05-08T02:26:35.228Z,8.04672
2018-05-08T02:26:47.652Z,8.04672
2018-05-08T02:27:00.065Z,8.04672
2018-05-08T02:27:12.561Z,3.218688
2018-05-08T02:27:24.970Z,3.218688
2018-05-08T02:27:37.382Z,3.218688
2018-05-08T02:27:49.791Z,3.218688